sensor_id;sensor_type;location;lat;lon;timestamp;pressure;altitude;pressure_sealevel;temperature;humidity
24440;BME280;12618;54.386;18.394;2023-04-30T00:01:55;99641.84;;;5.89;93.86
24440;BME280;12618;54.386;18.394;2023-04-30T00:04:27;99646.55;;;5.87;94.42
24440;BME280;12618;54.386;18.394;2023-04-30T00:06:59;99646.02;;;5.81;94.90
24440;BME280;12618;54.386;18.394;2023-04-30T00:09:31;99645.98;;;5.76;95.09
24440;BME280;12618;54.386;18.394;2023-04-30T00:12:03;99645.67;;;5.70;94.59
24440;BME280;12618;54.386;18.394;2023-04-30T00:14:36;99647.38;;;5.65;94.63
24440;BME280;12618;54.386;18.394;2023-04-30T00:17:08;99649.45;;;5.60;94.71
24440;BME280;12618;54.386;18.394;2023-04-30T00:19:39;99654.95;;;5.57;94.78
24440;BME280;12618;54.386;18.394;2023-04-30T00:22:11;99656.56;;;5.55;94.64
24440;BME280;12618;54.386;18.394;2023-04-30T00:24:43;99658.05;;;5.52;95.00
24440;BME280;12618;54.386;18.394;2023-04-30T00:27:15;99660.06;;;5.49;95.07
24440;BME280;12618;54.386;18.394;2023-04-30T00:29:46;99662.70;;;5.48;95.01
24440;BME280;12618;54.386;18.394;2023-04-30T00:32:18;99660.98;;;5.47;95.40
24440;BME280;12618;54.386;18.394;2023-04-30T00:34:50;99668.73;;;5.44;95.92
24440;BME280;12618;54.386;18.394;2023-04-30T00:37:21;99673.50;;;5.42;95.23
24440;BME280;12618;54.386;18.394;2023-04-30T00:39:53;99676.23;;;5.39;95.15
24440;BME280;12618;54.386;18.394;2023-04-30T00:42:25;99675.46;;;5.35;96.25
24440;BME280;12618;54.386;18.394;2023-04-30T00:44:57;99681.85;;;5.31;95.40
24440;BME280;12618;54.386;18.394;2023-04-30T00:47:29;99681.95;;;5.27;95.63
24440;BME280;12618;54.386;18.394;2023-04-30T00:50:02;99678.43;;;5.22;96.27
24440;BME280;12618;54.386;18.394;2023-04-30T00:52:34;99681.34;;;5.18;96.09
24440;BME280;12618;54.386;18.394;2023-04-30T00:55:07;99682.09;;;5.16;95.55
24440;BME280;12618;54.386;18.394;2023-04-30T00:57:42;99684.98;;;5.11;95.83
24440;BME280;12618;54.386;18.394;2023-04-30T01:00:13;99687.66;;;5.08;95.66
24440;BME280;12618;54.386;18.394;2023-04-30T01:02:46;99689.67;;;5.05;95.24
24440;BME280;12618;54.386;18.394;2023-04-30T01:05:18;99690.77;;;5.03;94.63
24440;BME280;12618;54.386;18.394;2023-04-30T01:07:53;99692.91;;;5.02;94.38
24440;BME280;12618;54.386;18.394;2023-04-30T01:10:31;99691.20;;;5.00;94.93
24440;BME280;12618;54.386;18.394;2023-04-30T01:13:59;99692.63;;;4.98;94.06
24440;BME280;12618;54.386;18.394;2023-04-30T01:16:58;99695.55;;;4.94;93.75
24440;BME280;12618;54.386;18.394;2023-04-30T01:19:34;99691.80;;;4.91;94.48
24440;BME280;12618;54.386;18.394;2023-04-30T01:22:34;99691.20;;;4.87;94.41
24440;BME280;12618;54.386;18.394;2023-04-30T01:28:17;99700.23;;;4.81;94.71
24440;BME280;12618;54.386;18.394;2023-04-30T01:30:54;99696.31;;;4.77;94.50
24440;BME280;12618;54.386;18.394;2023-04-30T01:33:26;99702.67;;;4.73;94.33
24440;BME280;12618;54.386;18.394;2023-04-30T01:41:53;99717.20;;;4.57;95.20
24440;BME280;12618;54.386;18.394;2023-04-30T01:44:48;99719.31;;;4.56;94.68
24440;BME280;12618;54.386;18.394;2023-04-30T01:50:32;99720.16;;;4.49;95.17
24440;BME280;12618;54.386;18.394;2023-04-30T01:53:23;99729.81;;;4.46;96.05
24440;BME280;12618;54.386;18.394;2023-04-30T01:56:05;99726.84;;;4.39;94.96
24440;BME280;12618;54.386;18.394;2023-04-30T01:58:39;99730.73;;;4.36;96.66
24440;BME280;12618;54.386;18.394;2023-04-30T02:01:31;99730.95;;;4.34;96.10
24440;BME280;12618;54.386;18.394;2023-04-30T02:04:03;99733.85;;;4.30;96.78
24440;BME280;12618;54.386;18.394;2023-04-30T02:06:35;99731.11;;;4.28;97.22
24440;BME280;12618;54.386;18.394;2023-04-30T02:09:10;99736.88;;;4.27;97.60
24440;BME280;12618;54.386;18.394;2023-04-30T02:11:41;99742.19;;;4.22;97.19
24440;BME280;12618;54.386;18.394;2023-04-30T02:14:13;99740.67;;;4.20;96.75
24440;BME280;12618;54.386;18.394;2023-04-30T02:16:45;99741.25;;;4.18;96.15
24440;BME280;12618;54.386;18.394;2023-04-30T02:19:16;99744.05;;;4.18;97.69
24440;BME280;12618;54.386;18.394;2023-04-30T02:21:51;99745.84;;;4.14;98.36
24440;BME280;12618;54.386;18.394;2023-04-30T02:24:28;99744.88;;;4.11;98.64
24440;BME280;12618;54.386;18.394;2023-04-30T02:26:59;99750.90;;;4.07;98.67
24440;BME280;12618;54.386;18.394;2023-04-30T02:29:31;99750.77;;;4.04;99.38
24440;BME280;12618;54.386;18.394;2023-04-30T02:32:03;99754.31;;;4.01;98.99
24440;BME280;12618;54.386;18.394;2023-04-30T02:34:36;99751.59;;;3.98;99.27
24440;BME280;12618;54.386;18.394;2023-04-30T02:37:08;99753.74;;;3.95;99.64
24440;BME280;12618;54.386;18.394;2023-04-30T02:39:39;99755.02;;;3.92;100.00
24440;BME280;12618;54.386;18.394;2023-04-30T02:42:12;99751.58;;;3.90;100.00
24440;BME280;12618;54.386;18.394;2023-04-30T02:44:43;99754.05;;;3.88;99.91
24440;BME280;12618;54.386;18.394;2023-04-30T02:47:15;99760.20;;;3.86;99.77
24440;BME280;12618;54.386;18.394;2023-04-30T02:49:47;99763.04;;;3.83;100.00
24440;BME280;12618;54.386;18.394;2023-04-30T02:52:21;99761.66;;;3.82;100.00
24440;BME280;12618;54.386;18.394;2023-04-30T02:54:53;99764.83;;;3.81;100.00
24440;BME280;12618;54.386;18.394;2023-04-30T02:57:24;99765.74;;;3.77;100.00
24440;BME280;12618;54.386;18.394;2023-04-30T02:59:56;99770.02;;;3.74;100.00
24440;BME280;12618;54.386;18.394;2023-04-30T03:02:28;99775.27;;;3.72;100.00
24440;BME280;12618;54.386;18.394;2023-04-30T03:05:00;99777.05;;;3.69;100.00
24440;BME280;12618;54.386;18.394;2023-04-30T03:07:34;99781.41;;;3.69;100.00
24440;BME280;12618;54.386;18.394;2023-04-30T03:10:07;99777.27;;;3.65;100.00
24440;BME280;12618;54.386;18.394;2023-04-30T03:12:39;99781.50;;;3.63;100.00
24440;BME280;12618;54.386;18.394;2023-04-30T03:15:13;99783.81;;;3.61;100.00
24440;BME280;12618;54.386;18.394;2023-04-30T03:17:45;99781.55;;;3.61;100.00
24440;BME280;12618;54.386;18.394;2023-04-30T03:20:17;99789.75;;;3.60;100.00
24440;BME280;12618;54.386;18.394;2023-04-30T03:22:51;99791.52;;;3.58;100.00
24440;BME280;12618;54.386;18.394;2023-04-30T03:25:23;99790.30;;;3.58;100.00
24440;BME280;12618;54.386;18.394;2023-04-30T03:27:58;99794.13;;;3.58;100.00
24440;BME280;12618;54.386;18.394;2023-04-30T03:30:30;99802.98;;;3.58;100.00
24440;BME280;12618;54.386;18.394;2023-04-30T03:33:02;99801.62;;;3.57;100.00
24440;BME280;12618;54.386;18.394;2023-04-30T03:35:39;99804.77;;;3.56;100.00
24440;BME280;12618;54.386;18.394;2023-04-30T03:38:12;99805.30;;;3.56;100.00
24440;BME280;12618;54.386;18.394;2023-04-30T03:40:46;99806.34;;;3.56;100.00
24440;BME280;12618;54.386;18.394;2023-04-30T03:43:20;99810.52;;;3.56;100.00
24440;BME280;12618;54.386;18.394;2023-04-30T03:45:52;99807.38;;;3.56;100.00
24440;BME280;12618;54.386;18.394;2023-04-30T03:48:24;99809.96;;;3.58;100.00
24440;BME280;12618;54.386;18.394;2023-04-30T03:50:59;99810.48;;;3.58;100.00
24440;BME280;12618;54.386;18.394;2023-04-30T03:53:33;99813.39;;;3.61;100.00
24440;BME280;12618;54.386;18.394;2023-04-30T03:56:10;99817.36;;;3.63;100.00
24440;BME280;12618;54.386;18.394;2023-04-30T03:58:41;99818.51;;;3.66;100.00
24440;BME280;12618;54.386;18.394;2023-04-30T04:01:13;99821.60;;;3.69;100.00
24440;BME280;12618;54.386;18.394;2023-04-30T04:03:45;99823.47;;;3.72;100.00
24440;BME280;12618;54.386;18.394;2023-04-30T04:06:17;99826.21;;;3.74;100.00
24440;BME280;12618;54.386;18.394;2023-04-30T04:08:51;99829.27;;;3.78;100.00
24440;BME280;12618;54.386;18.394;2023-04-30T04:11:23;99831.11;;;3.81;100.00
24440;BME280;12618;54.386;18.394;2023-04-30T04:13:54;99835.93;;;3.85;100.00
24440;BME280;12618;54.386;18.394;2023-04-30T04:16:28;99838.46;;;3.88;100.00
24440;BME280;12618;54.386;18.394;2023-04-30T04:19:00;99839.61;;;3.92;100.00
24440;BME280;12618;54.386;18.394;2023-04-30T04:21:35;99844.73;;;3.97;100.00
24440;BME280;12618;54.386;18.394;2023-04-30T04:24:07;99845.52;;;4.01;100.00
24440;BME280;12618;54.386;18.394;2023-04-30T04:26:39;99847.88;;;4.06;100.00
24440;BME280;12618;54.386;18.394;2023-04-30T04:30:55;99850.42;;;4.18;100.00
24440;BME280;12618;54.386;18.394;2023-04-30T04:33:27;99861.30;;;4.23;100.00
24440;BME280;12618;54.386;18.394;2023-04-30T04:35:59;99854.77;;;4.27;100.00
24440;BME280;12618;54.386;18.394;2023-04-30T04:38:31;99855.16;;;4.34;100.00
24440;BME280;12618;54.386;18.394;2023-04-30T04:41:02;99858.69;;;4.40;100.00
24440;BME280;12618;54.386;18.394;2023-04-30T04:43:37;99861.86;;;4.47;100.00
24440;BME280;12618;54.386;18.394;2023-04-30T04:46:14;99859.63;;;4.54;100.00
24440;BME280;12618;54.386;18.394;2023-04-30T04:48:52;99865.58;;;4.61;100.00
24440;BME280;12618;54.386;18.394;2023-04-30T04:51:26;99865.58;;;4.68;100.00
24440;BME280;12618;54.386;18.394;2023-04-30T04:53:58;99866.46;;;4.76;100.00
24440;BME280;12618;54.386;18.394;2023-04-30T04:56:29;99867.04;;;4.82;100.00
24440;BME280;12618;54.386;18.394;2023-04-30T04:59:01;99868.28;;;4.87;100.00
24440;BME280;12618;54.386;18.394;2023-04-30T05:01:33;99873.73;;;4.94;100.00
24440;BME280;12618;54.386;18.394;2023-04-30T05:04:04;99871.64;;;5.01;100.00
24440;BME280;12618;54.386;18.394;2023-04-30T05:06:36;99875.48;;;5.09;100.00
24440;BME280;12618;54.386;18.394;2023-04-30T05:09:10;99880.55;;;5.16;100.00
24440;BME280;12618;54.386;18.394;2023-04-30T05:11:42;99877.46;;;5.21;100.00
24440;BME280;12618;54.386;18.394;2023-04-30T05:14:15;99880.99;;;5.27;100.00
24440;BME280;12618;54.386;18.394;2023-04-30T05:16:48;99882.04;;;5.34;100.00
24440;BME280;12618;54.386;18.394;2023-04-30T05:19:21;99886.61;;;5.40;100.00
24440;BME280;12618;54.386;18.394;2023-04-30T05:21:52;99889.74;;;5.47;100.00
24440;BME280;12618;54.386;18.394;2023-04-30T05:24:24;99885.80;;;5.52;100.00
24440;BME280;12618;54.386;18.394;2023-04-30T05:26:58;99895.19;;;5.60;100.00
24440;BME280;12618;54.386;18.394;2023-04-30T05:29:30;99894.70;;;5.66;100.00
24440;BME280;12618;54.386;18.394;2023-04-30T05:32:04;99897.20;;;5.71;100.00
24440;BME280;12618;54.386;18.394;2023-04-30T05:34:36;99903.01;;;5.75;100.00
24440;BME280;12618;54.386;18.394;2023-04-30T05:37:08;99905.66;;;5.80;100.00
24440;BME280;12618;54.386;18.394;2023-04-30T05:39:39;99919.04;;;5.84;100.00
24440;BME280;12618;54.386;18.394;2023-04-30T05:42:11;99917.81;;;5.84;100.00
24440;BME280;12618;54.386;18.394;2023-04-30T05:44:43;99920.53;;;5.86;100.00
24440;BME280;12618;54.386;18.394;2023-04-30T05:47:15;99917.85;;;5.90;100.00
24440;BME280;12618;54.386;18.394;2023-04-30T05:49:49;99921.23;;;5.95;100.00
24440;BME280;12618;54.386;18.394;2023-04-30T05:52:20;99923.79;;;6.04;100.00
24440;BME280;12618;54.386;18.394;2023-04-30T05:54:52;99926.90;;;6.11;100.00
24440;BME280;12618;54.386;18.394;2023-04-30T05:57:24;99932.90;;;6.23;100.00
24440;BME280;12618;54.386;18.394;2023-04-30T05:59:56;99936.95;;;6.34;100.00
24440;BME280;12618;54.386;18.394;2023-04-30T06:02:30;99933.36;;;6.44;100.00
24440;BME280;12618;54.386;18.394;2023-04-30T06:05:11;99934.22;;;6.57;100.00
24440;BME280;12618;54.386;18.394;2023-04-30T06:07:46;99939.09;;;6.71;100.00
24440;BME280;12618;54.386;18.394;2023-04-30T06:10:18;99943.26;;;6.83;100.00
24440;BME280;12618;54.386;18.394;2023-04-30T06:12:50;99947.44;;;6.96;100.00
24440;BME280;12618;54.386;18.394;2023-04-30T06:15:21;99951.73;;;7.10;99.92
24440;BME280;12618;54.386;18.394;2023-04-30T06:17:53;99948.73;;;7.22;99.57
24440;BME280;12618;54.386;18.394;2023-04-30T06:20:27;99951.90;;;7.39;99.72
24440;BME280;12618;54.386;18.394;2023-04-30T06:23:00;99958.33;;;7.63;98.57
24440;BME280;12618;54.386;18.394;2023-04-30T06:25:33;99961.23;;;7.92;94.92
24440;BME280;12618;54.386;18.394;2023-04-30T06:28:04;99962.45;;;8.34;91.70
24440;BME280;12618;54.386;18.394;2023-04-30T06:30:39;99963.94;;;8.66;89.09
24440;BME280;12618;54.386;18.394;2023-04-30T06:33:11;99967.28;;;8.94;87.36
24440;BME280;12618;54.386;18.394;2023-04-30T06:35:43;99966.30;;;9.61;85.74
24440;BME280;12618;54.386;18.394;2023-04-30T06:38:15;99967.47;;;10.30;84.48
24440;BME280;12618;54.386;18.394;2023-04-30T06:40:48;99977.43;;;10.65;76.56
24440;BME280;12618;54.386;18.394;2023-04-30T06:43:20;99973.80;;;10.98;74.93
24440;BME280;12618;54.386;18.394;2023-04-30T06:45:55;99976.39;;;11.52;69.74
24440;BME280;12618;54.386;18.394;2023-04-30T06:48:26;99972.34;;;11.89;69.51
24440;BME280;12618;54.386;18.394;2023-04-30T06:50:58;99974.66;;;12.41;66.55
24440;BME280;12618;54.386;18.394;2023-04-30T06:53:30;99975.83;;;13.09;61.73
24440;BME280;12618;54.386;18.394;2023-04-30T06:56:02;99974.77;;;14.22;63.29
24440;BME280;12618;54.386;18.394;2023-04-30T06:58:34;99979.78;;;15.12;59.40
24440;BME280;12618;54.386;18.394;2023-04-30T07:01:06;99982.99;;;15.17;54.81
24440;BME280;12618;54.386;18.394;2023-04-30T07:03:38;99981.05;;;15.65;54.72
24440;BME280;12618;54.386;18.394;2023-04-30T07:06:10;99984.77;;;16.05;52.47
24440;BME280;12618;54.386;18.394;2023-04-30T07:08:41;99983.02;;;16.63;49.90
24440;BME280;12618;54.386;18.394;2023-04-30T07:11:16;99980.96;;;16.72;45.73
24440;BME280;12618;54.386;18.394;2023-04-30T07:13:48;99989.38;;;16.50;46.14
24440;BME280;12618;54.386;18.394;2023-04-30T07:16:20;99989.88;;;16.25;45.75
24440;BME280;12618;54.386;18.394;2023-04-30T07:18:52;99988.11;;;16.74;44.63
24440;BME280;12618;54.386;18.394;2023-04-30T07:21:24;99991.25;;;17.33;44.04
24440;BME280;12618;54.386;18.394;2023-04-30T07:23:56;99992.24;;;17.98;41.44
24440;BME280;12618;54.386;18.394;2023-04-30T07:26:28;99989.34;;;18.10;39.91
24440;BME280;12618;54.386;18.394;2023-04-30T07:29:00;99993.23;;;17.89;40.67
24440;BME280;12618;54.386;18.394;2023-04-30T07:31:33;99997.95;;;17.04;41.51
24440;BME280;12618;54.386;18.394;2023-04-30T07:34:05;99992.92;;;17.24;42.35
24440;BME280;12618;54.386;18.394;2023-04-30T07:36:38;100000.80;;;17.59;41.10
24440;BME280;12618;54.386;18.394;2023-04-30T07:39:11;100007.10;;;17.75;39.56
24440;BME280;12618;54.386;18.394;2023-04-30T07:41:45;100005.59;;;17.31;39.86
24440;BME280;12618;54.386;18.394;2023-04-30T07:44:19;100010.07;;;17.23;39.68
24440;BME280;12618;54.386;18.394;2023-04-30T07:46:53;100009.27;;;17.70;39.59
24440;BME280;12618;54.386;18.394;2023-04-30T07:49:30;100006.61;;;18.15;37.70
24440;BME280;12618;54.386;18.394;2023-04-30T07:52:02;100011.46;;;17.98;36.83
24440;BME280;12618;54.386;18.394;2023-04-30T07:54:39;100017.30;;;17.52;37.31
24440;BME280;12618;54.386;18.394;2023-04-30T07:57:11;100017.21;;;18.28;37.07
24440;BME280;12618;54.386;18.394;2023-04-30T07:59:45;100015.78;;;19.18;36.63
24440;BME280;12618;54.386;18.394;2023-04-30T08:02:22;100014.65;;;19.46;35.37
24440;BME280;12618;54.386;18.394;2023-04-30T08:04:55;100022.69;;;19.60;34.02
24440;BME280;12618;54.386;18.394;2023-04-30T08:07:29;100019.42;;;19.82;34.82
24440;BME280;12618;54.386;18.394;2023-04-30T08:10:01;100027.83;;;20.10;33.35
24440;BME280;12618;54.386;18.394;2023-04-30T08:12:35;100023.52;;;19.54;33.04
24440;BME280;12618;54.386;18.394;2023-04-30T08:15:09;100026.23;;;19.04;34.16
24440;BME280;12618;54.386;18.394;2023-04-30T08:17:40;100027.58;;;19.21;34.90
24440;BME280;12618;54.386;18.394;2023-04-30T08:20:12;100033.81;;;18.91;32.85
24440;BME280;12618;54.386;18.394;2023-04-30T08:22:44;100029.81;;;18.78;33.82
24440;BME280;12618;54.386;18.394;2023-04-30T08:25:16;100037.92;;;19.30;33.24
24440;BME280;12618;54.386;18.394;2023-04-30T08:27:47;100050.73;;;19.64;31.87
24440;BME280;12618;54.386;18.394;2023-04-30T08:30:19;100043.13;;;19.43;32.79
24440;BME280;12618;54.386;18.394;2023-04-30T08:32:51;100051.11;;;18.93;33.46
24440;BME280;12618;54.386;18.394;2023-04-30T08:35:25;100052.21;;;18.05;33.61
24440;BME280;12618;54.386;18.394;2023-04-30T08:37:57;100059.66;;;17.03;34.98
24440;BME280;12618;54.386;18.394;2023-04-30T08:40:29;100061.40;;;16.06;36.31
24440;BME280;12618;54.386;18.394;2023-04-30T08:43:21;100050.73;;;16.64;36.28
24440;BME280;12618;54.386;18.394;2023-04-30T08:45:56;100061.11;;;17.79;34.46
24440;BME280;12618;54.386;18.394;2023-04-30T08:48:29;100064.02;;;17.88;33.58
24440;BME280;12618;54.386;18.394;2023-04-30T08:51:03;100062.90;;;18.51;32.73
24440;BME280;12618;54.386;18.394;2023-04-30T08:53:37;100067.80;;;18.54;32.15
24440;BME280;12618;54.386;18.394;2023-04-30T08:56:09;100065.69;;;17.99;33.13
24440;BME280;12618;54.386;18.394;2023-04-30T08:58:41;100066.23;;;17.74;34.66
24440;BME280;12618;54.386;18.394;2023-04-30T09:01:14;100078.79;;;16.86;34.07
24440;BME280;12618;54.386;18.394;2023-04-30T09:03:46;100075.98;;;15.78;35.81
24440;BME280;12618;54.386;18.394;2023-04-30T09:06:19;100074.98;;;15.69;37.08
24440;BME280;12618;54.386;18.394;2023-04-30T09:08:51;100084.00;;;15.55;36.30
24440;BME280;12618;54.386;18.394;2023-04-30T09:14:00;100091.53;;;15.36;38.17
24440;BME280;12618;54.386;18.394;2023-04-30T09:16:47;100084.64;;;16.01;37.87
24440;BME280;12618;54.386;18.394;2023-04-30T09:19:23;100094.20;;;16.63;35.88
24440;BME280;12618;54.386;18.394;2023-04-30T09:21:55;100093.82;;;17.41;34.48
24440;BME280;12618;54.386;18.394;2023-04-30T09:24:44;100092.92;;;18.18;32.99
24440;BME280;12618;54.386;18.394;2023-04-30T09:27:20;100087.28;;;18.66;31.66
24440;BME280;12618;54.386;18.394;2023-04-30T09:29:52;100094.27;;;19.16;31.86
24440;BME280;12618;54.386;18.394;2023-04-30T09:32:25;100096.13;;;19.11;30.72
24440;BME280;12618;54.386;18.394;2023-04-30T09:34:57;100098.89;;;19.46;29.53
24440;BME280;12618;54.386;18.394;2023-04-30T09:37:38;100103.47;;;19.79;28.26
24440;BME280;12618;54.386;18.394;2023-04-30T09:40:11;100105.86;;;20.30;29.46
24440;BME280;12618;54.386;18.394;2023-04-30T09:42:59;100102.48;;;20.73;28.45
24440;BME280;12618;54.386;18.394;2023-04-30T09:45:47;100105.63;;;20.57;27.39
24440;BME280;12618;54.386;18.394;2023-04-30T09:48:21;100111.70;;;20.40;27.49
24440;BME280;12618;54.386;18.394;2023-04-30T09:50:54;100116.46;;;20.10;27.22
24440;BME280;12618;54.386;18.394;2023-04-30T09:53:26;100114.24;;;20.42;28.40
24440;BME280;12618;54.386;18.394;2023-04-30T09:56:01;100111.35;;;20.68;27.83
24440;BME280;12618;54.386;18.394;2023-04-30T09:58:36;100107.03;;;20.14;28.73
24440;BME280;12618;54.386;18.394;2023-04-30T10:01:09;100114.84;;;19.06;28.38
24440;BME280;12618;54.386;18.394;2023-04-30T10:03:42;100116.38;;;17.75;29.23
24440;BME280;12618;54.386;18.394;2023-04-30T10:06:15;100116.83;;;17.74;29.06
24440;BME280;12618;54.386;18.394;2023-04-30T10:08:52;100122.71;;;17.43;28.63
24440;BME280;12618;54.386;18.394;2023-04-30T10:11:27;100121.84;;;17.17;30.10
24440;BME280;12618;54.386;18.394;2023-04-30T10:14:09;100112.92;;;17.93;30.03
24440;BME280;12618;54.386;18.394;2023-04-30T10:16:48;100111.09;;;18.31;29.71
24440;BME280;12618;54.386;18.394;2023-04-30T10:19:24;100118.98;;;18.82;28.58
24440;BME280;12618;54.386;18.394;2023-04-30T10:21:56;100120.38;;;18.61;26.07
24440;BME280;12618;54.386;18.394;2023-04-30T10:24:32;100118.28;;;18.37;27.70
24440;BME280;12618;54.386;18.394;2023-04-30T10:27:04;100113.43;;;18.57;28.32
24440;BME280;12618;54.386;18.394;2023-04-30T10:29:37;100111.58;;;18.86;28.59
24440;BME280;12618;54.386;18.394;2023-04-30T10:32:10;100118.84;;;18.48;27.62
24440;BME280;12618;54.386;18.394;2023-04-30T10:34:54;100121.02;;;17.75;29.21
24440;BME280;12618;54.386;18.394;2023-04-30T10:37:38;100119.58;;;17.24;30.38
24440;BME280;12618;54.386;18.394;2023-04-30T10:40:11;100122.13;;;17.00;30.92
24440;BME280;12618;54.386;18.394;2023-04-30T10:42:47;100125.64;;;16.69;30.63
24440;BME280;12618;54.386;18.394;2023-04-30T10:45:36;100122.51;;;16.30;31.28
24440;BME280;12618;54.386;18.394;2023-04-30T10:48:09;100122.18;;;16.08;31.19
24440;BME280;12618;54.386;18.394;2023-04-30T10:50:43;100124.73;;;16.10;32.06
24440;BME280;12618;54.386;18.394;2023-04-30T10:53:18;100122.02;;;15.79;31.28
24440;BME280;12618;54.386;18.394;2023-04-30T10:55:59;100122.08;;;15.64;31.77
24440;BME280;12618;54.386;18.394;2023-04-30T10:58:38;100122.41;;;15.79;32.19
24440;BME280;12618;54.386;18.394;2023-04-30T11:01:14;100123.79;;;15.93;32.34
24440;BME280;12618;54.386;18.394;2023-04-30T11:04:07;100124.29;;;15.94;32.27
24440;BME280;12618;54.386;18.394;2023-04-30T11:09:43;100122.33;;;16.65;31.98
24440;BME280;12618;54.386;18.394;2023-04-30T11:12:20;100125.48;;;16.92;31.40
24440;BME280;12618;54.386;18.394;2023-04-30T11:15:25;100127.75;;;16.85;30.34
24440;BME280;12618;54.386;18.394;2023-04-30T11:18:00;100131.51;;;16.85;30.57
24440;BME280;12618;54.386;18.394;2023-04-30T11:20:51;100129.32;;;16.91;30.92
24440;BME280;12618;54.386;18.394;2023-04-30T11:23:27;100129.36;;;16.72;31.26
24440;BME280;12618;54.386;18.394;2023-04-30T11:26:13;100130.95;;;16.61;30.54
24440;BME280;12618;54.386;18.394;2023-04-30T11:28:50;100136.73;;;16.71;30.49
24440;BME280;12618;54.386;18.394;2023-04-30T11:31:32;100130.19;;;16.94;30.70
24440;BME280;12618;54.386;18.394;2023-04-30T11:34:06;100131.64;;;16.86;30.62
24440;BME280;12618;54.386;18.394;2023-04-30T11:36:39;100131.73;;;16.73;29.78
24440;BME280;12618;54.386;18.394;2023-04-30T11:39:12;100144.20;;;16.60;30.50
24440;BME280;12618;54.386;18.394;2023-04-30T11:41:45;100128.60;;;16.40;31.13
24440;BME280;12618;54.386;18.394;2023-04-30T11:51:21;100135.14;;;16.16;32.76
24440;BME280;12618;54.386;18.394;2023-04-30T11:53:55;100138.54;;;16.29;31.58
24440;BME280;12618;54.386;18.394;2023-04-30T11:56:31;100135.52;;;16.21;32.33
24440;BME280;12618;54.386;18.394;2023-04-30T11:59:14;100136.92;;;16.32;32.38
24440;BME280;12618;54.386;18.394;2023-04-30T12:01:48;100145.45;;;16.29;31.59
24440;BME280;12618;54.386;18.394;2023-04-30T12:04:21;100141.46;;;16.25;31.79
24440;BME280;12618;54.386;18.394;2023-04-30T12:06:53;100141.59;;;16.23;31.87
24440;BME280;12618;54.386;18.394;2023-04-30T12:09:26;100145.58;;;16.11;31.76
24440;BME280;12618;54.386;18.394;2023-04-30T12:12:01;100139.20;;;16.00;31.86
24440;BME280;12618;54.386;18.394;2023-04-30T12:14:33;100139.82;;;15.87;32.48
24440;BME280;12618;54.386;18.394;2023-04-30T12:17:09;100147.48;;;15.58;32.26
24440;BME280;12618;54.386;18.394;2023-04-30T12:19:44;100141.60;;;15.44;32.05
24440;BME280;12618;54.386;18.394;2023-04-30T12:22:16;100142.89;;;15.55;33.58
24440;BME280;12618;54.386;18.394;2023-04-30T12:24:48;100146.23;;;15.67;32.16
24440;BME280;12618;54.386;18.394;2023-04-30T12:27:21;100149.31;;;15.77;32.71
24440;BME280;12618;54.386;18.394;2023-04-30T12:29:53;100145.55;;;15.78;31.83
24440;BME280;12618;54.386;18.394;2023-04-30T12:32:27;100140.41;;;15.80;31.76
24440;BME280;12618;54.386;18.394;2023-04-30T12:35:01;100148.13;;;15.68;31.68
24440;BME280;12618;54.386;18.394;2023-04-30T12:37:35;100147.02;;;15.71;32.64
24440;BME280;12618;54.386;18.394;2023-04-30T12:40:13;100147.28;;;15.67;31.87
24440;BME280;12618;54.386;18.394;2023-04-30T12:42:45;100145.08;;;15.51;32.30
24440;BME280;12618;54.386;18.394;2023-04-30T12:45:46;100141.48;;;15.52;32.23
24440;BME280;12618;54.386;18.394;2023-04-30T12:48:20;100141.46;;;15.67;32.57
24440;BME280;12618;54.386;18.394;2023-04-30T12:51:00;100142.46;;;15.56;31.98
24440;BME280;12618;54.386;18.394;2023-04-30T12:53:32;100134.59;;;15.57;32.66
24440;BME280;12618;54.386;18.394;2023-04-30T12:56:31;100140.77;;;15.52;32.69
24440;BME280;12618;54.386;18.394;2023-04-30T12:59:13;100139.88;;;15.11;32.74
24440;BME280;12618;54.386;18.394;2023-04-30T13:07:15;100147.53;;;15.01;34.54
24440;BME280;12618;54.386;18.394;2023-04-30T13:09:46;100149.84;;;14.83;34.80
24440;BME280;12618;54.386;18.394;2023-04-30T13:12:18;100153.03;;;14.68;34.91
24440;BME280;12618;54.386;18.394;2023-04-30T13:14:50;100151.73;;;14.35;34.56
24440;BME280;12618;54.386;18.394;2023-04-30T13:17:22;100157.84;;;14.11;35.42
24440;BME280;12618;54.386;18.394;2023-04-30T13:19:53;100160.90;;;14.07;35.78
24440;BME280;12618;54.386;18.394;2023-04-30T13:22:28;100156.20;;;14.12;36.47
24440;BME280;12618;54.386;18.394;2023-04-30T13:25:00;100156.80;;;14.17;37.10
24440;BME280;12618;54.386;18.394;2023-04-30T13:27:32;100155.94;;;14.32;37.66
24440;BME280;12618;54.386;18.394;2023-04-30T13:30:07;100158.17;;;14.37;37.47
24440;BME280;12618;54.386;18.394;2023-04-30T13:32:39;100156.63;;;14.20;36.90
24440;BME280;12618;54.386;18.394;2023-04-30T13:35:11;100150.58;;;14.08;37.46
24440;BME280;12618;54.386;18.394;2023-04-30T13:37:43;100157.66;;;13.98;38.02
24440;BME280;12618;54.386;18.394;2023-04-30T13:40:15;100154.95;;;14.06;38.34
24440;BME280;12618;54.386;18.394;2023-04-30T13:42:47;100161.94;;;14.01;37.70
24440;BME280;12618;54.386;18.394;2023-04-30T13:45:19;100164.30;;;13.94;37.22
24440;BME280;12618;54.386;18.394;2023-04-30T13:47:51;100164.17;;;13.69;36.83
24440;BME280;12618;54.386;18.394;2023-04-30T13:50:23;100163.52;;;13.55;37.40
24440;BME280;12618;54.386;18.394;2023-04-30T13:52:57;100158.95;;;13.55;37.97
24440;BME280;12618;54.386;18.394;2023-04-30T13:55:29;100158.21;;;13.56;37.87
24440;BME280;12618;54.386;18.394;2023-04-30T13:58:04;100161.54;;;13.56;38.15